sensor_id;sensor_type;location;lat;lon;timestamp;P1;durP1;ratioP1;P2;durP2;ratioP2
46230;SDS011;31949;51.404;-0.038;2022-12-29T00:00:21;28.65;;;4.93;;
46230;SDS011;31949;51.404;-0.038;2022-12-29T00:02:49;21.50;;;4.00;;
46230;SDS011;31949;51.404;-0.038;2022-12-29T00:05:16;21.95;;;4.28;;
46230;SDS011;31949;51.404;-0.038;2022-12-29T00:07:43;18.40;;;4.05;;
46230;SDS011;31949;51.404;-0.038;2022-12-29T00:10:11;14.98;;;3.88;;
46230;SDS011;31949;51.404;-0.038;2022-12-29T00:12:38;18.02;;;3.78;;
46230;SDS011;31949;51.404;-0.038;2022-12-29T00:15:23;20.25;;;3.78;;
46230;SDS011;31949;51.404;-0.038;2022-12-29T00:18:03;17.75;;;3.72;;
46230;SDS011;31949;51.404;-0.038;2022-12-29T00:20:33;21.30;;;4.10;;
46230;SDS011;31949;51.404;-0.038;2022-12-29T00:23:19;19.85;;;3.30;;
46230;SDS011;31949;51.404;-0.038;2022-12-29T00:26:09;13.00;;;2.95;;
46230;SDS011;31949;51.404;-0.038;2022-12-29T00:29:01;20.88;;;3.53;;
46230;SDS011;31949;51.404;-0.038;2022-12-29T00:31:47;17.88;;;4.30;;
46230;SDS011;31949;51.404;-0.038;2022-12-29T00:34:35;12.30;;;2.83;;
46230;SDS011;31949;51.404;-0.038;2022-12-29T00:37:21;15.93;;;3.67;;
46230;SDS011;31949;51.404;-0.038;2022-12-29T00:40:08;14.48;;;3.38;;
46230;SDS011;31949;51.404;-0.038;2022-12-29T00:42:54;13.00;;;2.45;;
46230;SDS011;31949;51.404;-0.038;2022-12-29T00:45:40;15.60;;;3.40;;
46230;SDS011;31949;51.404;-0.038;2022-12-29T00:48:10;14.15;;;3.55;;
46230;SDS011;31949;51.404;-0.038;2022-12-29T00:50:37;21.88;;;3.88;;
46230;SDS011;31949;51.404;-0.038;2022-12-29T00:53:04;15.77;;;4.18;;
46230;SDS011;31949;51.404;-0.038;2022-12-29T00:55:31;17.17;;;4.43;;
46230;SDS011;31949;51.404;-0.038;2022-12-29T00:58:02;25.00;;;4.53;;
46230;SDS011;31949;51.404;-0.038;2022-12-29T01:00:29;16.90;;;4.10;;
46230;SDS011;31949;51.404;-0.038;2022-12-29T01:02:56;16.38;;;4.30;;
46230;SDS011;31949;51.404;-0.038;2022-12-29T01:05:23;15.50;;;3.45;;
46230;SDS011;31949;51.404;-0.038;2022-12-29T01:07:51;15.95;;;3.85;;
46230;SDS011;31949;51.404;-0.038;2022-12-29T01:10:18;18.65;;;3.75;;
46230;SDS011;31949;51.404;-0.038;2022-12-29T01:12:45;17.65;;;3.83;;
46230;SDS011;31949;51.404;-0.038;2022-12-29T01:15:14;12.48;;;3.58;;
46230;SDS011;31949;51.404;-0.038;2022-12-29T01:17:42;21.45;;;3.90;;
46230;SDS011;31949;51.404;-0.038;2022-12-29T01:20:09;16.50;;;3.45;;
46230;SDS011;31949;51.404;-0.038;2022-12-29T01:22:37;18.88;;;3.90;;
46230;SDS011;31949;51.404;-0.038;2022-12-29T01:25:05;22.70;;;4.47;;
46230;SDS011;31949;51.404;-0.038;2022-12-29T01:27:34;20.27;;;3.75;;
46230;SDS011;31949;51.404;-0.038;2022-12-29T01:30:01;25.60;;;3.47;;
46230;SDS011;31949;51.404;-0.038;2022-12-29T01:32:30;14.75;;;3.58;;
46230;SDS011;31949;51.404;-0.038;2022-12-29T01:34:58;16.13;;;4.18;;
46230;SDS011;31949;51.404;-0.038;2022-12-29T01:37:25;17.30;;;4.85;;
46230;SDS011;31949;51.404;-0.038;2022-12-29T01:39:52;23.80;;;4.53;;
46230;SDS011;31949;51.404;-0.038;2022-12-29T01:42:21;24.70;;;3.78;;
46230;SDS011;31949;51.404;-0.038;2022-12-29T01:47:21;16.02;;;3.65;;
46230;SDS011;31949;51.404;-0.038;2022-12-29T01:50:09;20.27;;;3.70;;
46230;SDS011;31949;51.404;-0.038;2022-12-29T01:52:59;21.27;;;4.15;;
46230;SDS011;31949;51.404;-0.038;2022-12-29T01:55:39;24.17;;;4.18;;
46230;SDS011;31949;51.404;-0.038;2022-12-29T01:58:10;21.90;;;4.22;;
46230;SDS011;31949;51.404;-0.038;2022-12-29T02:00:41;19.10;;;4.13;;
46230;SDS011;31949;51.404;-0.038;2022-12-29T02:03:08;18.50;;;4.03;;
46230;SDS011;31949;51.404;-0.038;2022-12-29T02:05:41;19.02;;;3.55;;
46230;SDS011;31949;51.404;-0.038;2022-12-29T02:08:26;19.33;;;3.30;;
46230;SDS011;31949;51.404;-0.038;2022-12-29T02:11:00;15.38;;;4.13;;
46230;SDS011;31949;51.404;-0.038;2022-12-29T02:13:28;21.60;;;4.78;;
46230;SDS011;31949;51.404;-0.038;2022-12-29T02:16:02;23.13;;;4.78;;
46230;SDS011;31949;51.404;-0.038;2022-12-29T02:21:57;25.75;;;4.05;;
46230;SDS011;31949;51.404;-0.038;2022-12-29T02:35:40;21.65;;;5.22;;
46230;SDS011;31949;51.404;-0.038;2022-12-29T02:46:51;27.10;;;5.95;;
46230;SDS011;31949;51.404;-0.038;2022-12-29T02:49:27;23.10;;;5.35;;
46230;SDS011;31949;51.404;-0.038;2022-12-29T02:52:05;21.98;;;5.45;;
46230;SDS011;31949;51.404;-0.038;2022-12-29T02:54:37;24.60;;;7.22;;
46230;SDS011;31949;51.404;-0.038;2022-12-29T02:57:12;23.70;;;4.80;;
46230;SDS011;31949;51.404;-0.038;2022-12-29T02:59:51;21.45;;;5.28;;
46230;SDS011;31949;51.404;-0.038;2022-12-29T03:08:11;23.38;;;4.40;;
46230;SDS011;31949;51.404;-0.038;2022-12-29T03:13:28;21.30;;;4.97;;
46230;SDS011;31949;51.404;-0.038;2022-12-29T03:16:32;22.67;;;5.65;;
46230;SDS011;31949;51.404;-0.038;2022-12-29T03:19:14;16.90;;;4.30;;
46230;SDS011;31949;51.404;-0.038;2022-12-29T03:21:49;26.15;;;4.63;;
46230;SDS011;31949;51.404;-0.038;2022-12-29T03:24:50;22.75;;;4.30;;
46230;SDS011;31949;51.404;-0.038;2022-12-29T03:27:25;22.48;;;4.93;;
46230;SDS011;31949;51.404;-0.038;2022-12-29T03:30:00;23.50;;;5.68;;
46230;SDS011;31949;51.404;-0.038;2022-12-29T03:32:32;20.63;;;4.68;;
46230;SDS011;31949;51.404;-0.038;2022-12-29T03:35:03;25.05;;;5.18;;
46230;SDS011;31949;51.404;-0.038;2022-12-29T03:37:37;21.67;;;4.90;;
46230;SDS011;31949;51.404;-0.038;2022-12-29T03:40:07;22.73;;;4.57;;
46230;SDS011;31949;51.404;-0.038;2022-12-29T03:42:35;22.13;;;4.63;;
46230;SDS011;31949;51.404;-0.038;2022-12-29T03:45:04;17.52;;;3.95;;
46230;SDS011;31949;51.404;-0.038;2022-12-29T03:47:33;16.92;;;4.43;;
46230;SDS011;31949;51.404;-0.038;2022-12-29T03:50:00;23.25;;;5.72;;
46230;SDS011;31949;51.404;-0.038;2022-12-29T03:52:32;21.83;;;5.85;;
46230;SDS011;31949;51.404;-0.038;2022-12-29T03:54:59;19.75;;;4.72;;
46230;SDS011;31949;51.404;-0.038;2022-12-29T03:57:27;23.77;;;5.30;;
46230;SDS011;31949;51.404;-0.038;2022-12-29T03:59:58;16.60;;;4.53;;
46230;SDS011;31949;51.404;-0.038;2022-12-29T04:02:28;24.45;;;4.57;;
46230;SDS011;31949;51.404;-0.038;2022-12-29T04:04:56;20.88;;;3.85;;
46230;SDS011;31949;51.404;-0.038;2022-12-29T04:07:23;19.67;;;5.00;;
46230;SDS011;31949;51.404;-0.038;2022-12-29T04:09:53;27.65;;;5.72;;
46230;SDS011;31949;51.404;-0.038;2022-12-29T04:12:23;20.55;;;4.53;;
46230;SDS011;31949;51.404;-0.038;2022-12-29T04:14:50;19.13;;;4.28;;
46230;SDS011;31949;51.404;-0.038;2022-12-29T04:17:17;22.33;;;4.80;;
46230;SDS011;31949;51.404;-0.038;2022-12-29T04:19:48;27.13;;;5.18;;
46230;SDS011;31949;51.404;-0.038;2022-12-29T04:22:15;27.27;;;5.63;;
46230;SDS011;31949;51.404;-0.038;2022-12-29T04:24:44;18.20;;;5.07;;
46230;SDS011;31949;51.404;-0.038;2022-12-29T04:27:11;23.85;;;5.03;;
46230;SDS011;31949;51.404;-0.038;2022-12-29T04:30:00;20.70;;;4.85;;
46230;SDS011;31949;51.404;-0.038;2022-12-29T04:32:39;17.67;;;5.55;;
46230;SDS011;31949;51.404;-0.038;2022-12-29T04:35:06;21.35;;;4.88;;
46230;SDS011;31949;51.404;-0.038;2022-12-29T04:37:35;12.70;;;4.85;;
46230;SDS011;31949;51.404;-0.038;2022-12-29T04:40:02;11.02;;;3.63;;
46230;SDS011;31949;51.404;-0.038;2022-12-29T04:42:29;24.77;;;5.03;;
46230;SDS011;31949;51.404;-0.038;2022-12-29T04:44:58;20.23;;;4.43;;
46230;SDS011;31949;51.404;-0.038;2022-12-29T04:47:45;25.55;;;4.78;;
46230;SDS011;31949;51.404;-0.038;2022-12-29T04:50:35;24.30;;;4.93;;
46230;SDS011;31949;51.404;-0.038;2022-12-29T04:53:21;19.58;;;3.92;;
46230;SDS011;31949;51.404;-0.038;2022-12-29T04:55:51;22.08;;;4.35;;
46230;SDS011;31949;51.404;-0.038;2022-12-29T04:58:20;20.27;;;5.40;;
46230;SDS011;31949;51.404;-0.038;2022-12-29T05:00:52;22.38;;;4.75;;
46230;SDS011;31949;51.404;-0.038;2022-12-29T05:03:22;28.10;;;4.85;;
46230;SDS011;31949;51.404;-0.038;2022-12-29T05:05:52;17.42;;;5.22;;
46230;SDS011;31949;51.404;-0.038;2022-12-29T05:08:23;21.77;;;4.65;;
46230;SDS011;31949;51.404;-0.038;2022-12-29T05:10:56;19.88;;;6.00;;
46230;SDS011;31949;51.404;-0.038;2022-12-29T05:13:23;19.02;;;4.57;;
46230;SDS011;31949;51.404;-0.038;2022-12-29T05:15:51;21.77;;;4.63;;
46230;SDS011;31949;51.404;-0.038;2022-12-29T05:18:21;19.67;;;3.80;;
46230;SDS011;31949;51.404;-0.038;2022-12-29T05:20:49;23.20;;;4.82;;
46230;SDS011;31949;51.404;-0.038;2022-12-29T05:23:19;20.63;;;4.00;;
46230;SDS011;31949;51.404;-0.038;2022-12-29T05:25:53;25.48;;;5.53;;
46230;SDS011;31949;51.404;-0.038;2022-12-29T05:28:40;19.88;;;3.92;;
46230;SDS011;31949;51.404;-0.038;2022-12-29T05:31:11;19.87;;;4.67;;
46230;SDS011;31949;51.404;-0.038;2022-12-29T05:33:38;14.93;;;4.43;;
46230;SDS011;31949;51.404;-0.038;2022-12-29T05:36:09;17.63;;;3.55;;
46230;SDS011;31949;51.404;-0.038;2022-12-29T05:38:41;21.52;;;4.53;;
46230;SDS011;31949;51.404;-0.038;2022-12-29T05:41:09;18.83;;;4.38;;
46230;SDS011;31949;51.404;-0.038;2022-12-29T05:44:04;19.48;;;4.60;;
46230;SDS011;31949;51.404;-0.038;2022-12-29T05:46:51;19.75;;;3.70;;
46230;SDS011;31949;51.404;-0.038;2022-12-29T05:49:30;23.10;;;4.40;;
46230;SDS011;31949;51.404;-0.038;2022-12-29T05:52:06;23.38;;;5.70;;
46230;SDS011;31949;51.404;-0.038;2022-12-29T05:54:34;17.38;;;3.65;;
46230;SDS011;31949;51.404;-0.038;2022-12-29T05:57:05;18.83;;;3.58;;
46230;SDS011;31949;51.404;-0.038;2022-12-29T05:59:33;14.00;;;4.00;;
46230;SDS011;31949;51.404;-0.038;2022-12-29T06:02:01;17.50;;;3.10;;
46230;SDS011;31949;51.404;-0.038;2022-12-29T06:04:28;20.17;;;4.65;;
46230;SDS011;31949;51.404;-0.038;2022-12-29T06:06:55;13.80;;;3.10;;
46230;SDS011;31949;51.404;-0.038;2022-12-29T06:09:41;15.40;;;3.15;;
46230;SDS011;31949;51.404;-0.038;2022-12-29T06:12:09;15.23;;;4.18;;
46230;SDS011;31949;51.404;-0.038;2022-12-29T06:14:38;14.23;;;3.47;;
46230;SDS011;31949;51.404;-0.038;2022-12-29T06:17:05;8.65;;;2.10;;
46230;SDS011;31949;51.404;-0.038;2022-12-29T06:19:33;6.88;;;1.92;;
46230;SDS011;31949;51.404;-0.038;2022-12-29T06:22:00;12.45;;;2.17;;
46230;SDS011;31949;51.404;-0.038;2022-12-29T06:24:31;8.38;;;1.77;;
46230;SDS011;31949;51.404;-0.038;2022-12-29T06:26:59;8.50;;;2.00;;
46230;SDS011;31949;51.404;-0.038;2022-12-29T06:29:26;5.57;;;1.40;;
46230;SDS011;31949;51.404;-0.038;2022-12-29T06:31:56;5.63;;;1.95;;
46230;SDS011;31949;51.404;-0.038;2022-12-29T06:34:25;6.95;;;1.85;;
46230;SDS011;31949;51.404;-0.038;2022-12-29T06:36:53;5.20;;;1.42;;
46230;SDS011;31949;51.404;-0.038;2022-12-29T06:39:20;9.98;;;1.58;;
46230;SDS011;31949;51.404;-0.038;2022-12-29T06:41:59;7.78;;;1.63;;
46230;SDS011;31949;51.404;-0.038;2022-12-29T06:44:38;7.65;;;1.85;;
46230;SDS011;31949;51.404;-0.038;2022-12-29T06:47:08;6.55;;;1.88;;
46230;SDS011;31949;51.404;-0.038;2022-12-29T06:49:36;10.27;;;1.40;;
46230;SDS011;31949;51.404;-0.038;2022-12-29T06:52:03;8.07;;;1.75;;
46230;SDS011;31949;51.404;-0.038;2022-12-29T06:54:37;6.43;;;1.50;;
46230;SDS011;31949;51.404;-0.038;2022-12-29T06:57:05;8.90;;;1.17;;
46230;SDS011;31949;51.404;-0.038;2022-12-29T06:59:32;5.78;;;1.58;;
46230;SDS011;31949;51.404;-0.038;2022-12-29T07:01:59;4.60;;;0.93;;
46230;SDS011;31949;51.404;-0.038;2022-12-29T07:04:29;5.70;;;1.30;;
46230;SDS011;31949;51.404;-0.038;2022-12-29T07:06:56;6.55;;;1.13;;
46230;SDS011;31949;51.404;-0.038;2022-12-29T07:09:23;8.68;;;1.23;;
46230;SDS011;31949;51.404;-0.038;2022-12-29T07:11:50;10.00;;;1.30;;
46230;SDS011;31949;51.404;-0.038;2022-12-29T07:14:18;5.63;;;1.02;;
46230;SDS011;31949;51.404;-0.038;2022-12-29T07:16:45;5.95;;;1.80;;
46230;SDS011;31949;51.404;-0.038;2022-12-29T07:19:13;5.90;;;1.17;;
46230;SDS011;31949;51.404;-0.038;2022-12-29T07:21:40;2.03;;;1.00;;
46230;SDS011;31949;51.404;-0.038;2022-12-29T07:24:10;6.05;;;1.17;;
46230;SDS011;31949;51.404;-0.038;2022-12-29T07:26:38;8.25;;;1.33;;
46230;SDS011;31949;51.404;-0.038;2022-12-29T07:29:05;8.95;;;1.30;;
46230;SDS011;31949;51.404;-0.038;2022-12-29T07:31:32;5.13;;;0.98;;
46230;SDS011;31949;51.404;-0.038;2022-12-29T07:33:59;7.30;;;1.15;;
46230;SDS011;31949;51.404;-0.038;2022-12-29T07:36:26;9.68;;;1.30;;
46230;SDS011;31949;51.404;-0.038;2022-12-29T07:39:00;4.28;;;0.85;;
46230;SDS011;31949;51.404;-0.038;2022-12-29T07:41:27;2.92;;;1.10;;
46230;SDS011;31949;51.404;-0.038;2022-12-29T07:43:54;6.90;;;1.20;;
46230;SDS011;31949;51.404;-0.038;2022-12-29T07:46:31;4.57;;;0.98;;
46230;SDS011;31949;51.404;-0.038;2022-12-29T07:49:18;2.38;;;0.70;;
46230;SDS011;31949;51.404;-0.038;2022-12-29T07:51:45;5.38;;;1.00;;
46230;SDS011;31949;51.404;-0.038;2022-12-29T07:54:12;3.70;;;0.80;;
46230;SDS011;31949;51.404;-0.038;2022-12-29T07:56:40;5.43;;;1.42;;
46230;SDS011;31949;51.404;-0.038;2022-12-29T07:59:07;6.72;;;1.13;;
46230;SDS011;31949;51.404;-0.038;2022-12-29T08:01:34;6.75;;;1.00;;
46230;SDS011;31949;51.404;-0.038;2022-12-29T08:04:01;2.97;;;1.13;;
46230;SDS011;31949;51.404;-0.038;2022-12-29T08:06:29;8.02;;;1.33;;
46230;SDS011;31949;51.404;-0.038;2022-12-29T08:08:57;4.93;;;0.90;;
46230;SDS011;31949;51.404;-0.038;2022-12-29T08:11:33;6.32;;;1.00;;
46230;SDS011;31949;51.404;-0.038;2022-12-29T08:14:01;12.30;;;1.38;;
46230;SDS011;31949;51.404;-0.038;2022-12-29T08:16:29;3.53;;;0.90;;
46230;SDS011;31949;51.404;-0.038;2022-12-29T08:18:56;2.85;;;0.82;;
46230;SDS011;31949;51.404;-0.038;2022-12-29T08:21:24;6.47;;;1.13;;
46230;SDS011;31949;51.404;-0.038;2022-12-29T08:23:53;9.40;;;1.40;;
46230;SDS011;31949;51.404;-0.038;2022-12-29T08:26:20;4.50;;;0.90;;
46230;SDS011;31949;51.404;-0.038;2022-12-29T08:28:51;6.97;;;1.60;;
46230;SDS011;31949;51.404;-0.038;2022-12-29T08:31:19;5.30;;;0.95;;
46230;SDS011;31949;51.404;-0.038;2022-12-29T08:33:47;6.43;;;1.20;;
46230;SDS011;31949;51.404;-0.038;2022-12-29T08:36:14;6.50;;;1.35;;
46230;SDS011;31949;51.404;-0.038;2022-12-29T08:38:43;6.13;;;0.85;;
46230;SDS011;31949;51.404;-0.038;2022-12-29T08:41:11;8.18;;;1.05;;
46230;SDS011;31949;51.404;-0.038;2022-12-29T08:43:38;5.13;;;1.23;;
46230;SDS011;31949;51.404;-0.038;2022-12-29T08:46:05;5.32;;;1.20;;
46230;SDS011;31949;51.404;-0.038;2022-12-29T08:48:32;7.80;;;1.10;;
46230;SDS011;31949;51.404;-0.038;2022-12-29T08:51:00;5.90;;;1.40;;
46230;SDS011;31949;51.404;-0.038;2022-12-29T08:53:27;6.30;;;1.25;;
46230;SDS011;31949;51.404;-0.038;2022-12-29T08:55:55;6.90;;;1.00;;
46230;SDS011;31949;51.404;-0.038;2022-12-29T08:58:35;3.63;;;1.00;;
46230;SDS011;31949;51.404;-0.038;2022-12-29T09:01:03;2.95;;;0.77;;
46230;SDS011;31949;51.404;-0.038;2022-12-29T09:03:31;2.92;;;1.23;;
46230;SDS011;31949;51.404;-0.038;2022-12-29T09:06:20;6.20;;;1.05;;
46230;SDS011;31949;51.404;-0.038;2022-12-29T09:08:47;8.95;;;1.38;;
46230;SDS011;31949;51.404;-0.038;2022-12-29T09:11:16;4.45;;;1.30;;
46230;SDS011;31949;51.404;-0.038;2022-12-29T09:13:45;4.72;;;1.02;;
46230;SDS011;31949;51.404;-0.038;2022-12-29T09:16:13;8.73;;;1.35;;
46230;SDS011;31949;51.404;-0.038;2022-12-29T09:18:41;6.90;;;1.42;;
46230;SDS011;31949;51.404;-0.038;2022-12-29T09:21:09;6.82;;;1.58;;
46230;SDS011;31949;51.404;-0.038;2022-12-29T09:23:37;4.00;;;1.17;;
46230;SDS011;31949;51.404;-0.038;2022-12-29T09:26:05;10.50;;;1.52;;
46230;SDS011;31949;51.404;-0.038;2022-12-29T09:28:34;4.38;;;1.15;;
46230;SDS011;31949;51.404;-0.038;2022-12-29T09:31:01;12.23;;;1.55;;
46230;SDS011;31949;51.404;-0.038;2022-12-29T09:33:28;6.57;;;1.42;;
46230;SDS011;31949;51.404;-0.038;2022-12-29T09:35:56;7.25;;;1.17;;
46230;SDS011;31949;51.404;-0.038;2022-12-29T09:38:25;8.43;;;1.25;;
46230;SDS011;31949;51.404;-0.038;2022-12-29T09:40:58;3.63;;;1.17;;
46230;SDS011;31949;51.404;-0.038;2022-12-29T09:51:39;6.10;;;1.40;;
46230;SDS011;31949;51.404;-0.038;2022-12-29T09:54:19;7.95;;;1.40;;
46230;SDS011;31949;51.404;-0.038;2022-12-29T09:57:20;4.97;;;0.88;;
46230;SDS011;31949;51.404;-0.038;2022-12-29T09:59:53;5.95;;;1.27;;
46230;SDS011;31949;51.404;-0.038;2022-12-29T10:02:42;5.72;;;1.35;;
46230;SDS011;31949;51.404;-0.038;2022-12-29T10:05:27;6.65;;;2.00;;
46230;SDS011;31949;51.404;-0.038;2022-12-29T10:10:50;6.40;;;1.65;;
46230;SDS011;31949;51.404;-0.038;2022-12-29T10:13:27;2.28;;;0.80;;
46230;SDS011;31949;51.404;-0.038;2022-12-29T10:24:13;2.78;;;0.85;;
46230;SDS011;31949;51.404;-0.038;2022-12-29T10:26:42;4.57;;;1.13;;
46230;SDS011;31949;51.404;-0.038;2022-12-29T10:31:44;5.63;;;0.90;;
46230;SDS011;31949;51.404;-0.038;2022-12-29T10:34:36;2.42;;;0.80;;
46230;SDS011;31949;51.404;-0.038;2022-12-29T10:37:27;3.70;;;1.02;;
46230;SDS011;31949;51.404;-0.038;2022-12-29T10:40:02;4.75;;;0.90;;
46230;SDS011;31949;51.404;-0.038;2022-12-29T10:42:41;4.40;;;1.13;;
46230;SDS011;31949;51.404;-0.038;2022-12-29T10:47:50;1.80;;;0.45;;
46230;SDS011;31949;51.404;-0.038;2022-12-29T10:50:43;2.30;;;1.05;;
46230;SDS011;31949;51.404;-0.038;2022-12-29T10:53:12;4.25;;;1.23;;
46230;SDS011;31949;51.404;-0.038;2022-12-29T10:55:47;4.40;;;1.20;;
46230;SDS011;31949;51.404;-0.038;2022-12-29T10:58:16;5.40;;;0.90;;
46230;SDS011;31949;51.404;-0.038;2022-12-29T11:00:49;4.32;;;1.30;;
46230;SDS011;31949;51.404;-0.038;2022-12-29T11:03:27;4.05;;;0.65;;
46230;SDS011;31949;51.404;-0.038;2022-12-29T11:06:22;6.43;;;1.20;;
46230;SDS011;31949;51.404;-0.038;2022-12-29T11:08:54;6.00;;;0.80;;
46230;SDS011;31949;51.404;-0.038;2022-12-29T11:11:25;3.78;;;0.63;;
46230;SDS011;31949;51.404;-0.038;2022-12-29T11:14:18;5.57;;;1.10;;
46230;SDS011;31949;51.404;-0.038;2022-12-29T11:16:58;3.13;;;1.08;;
46230;SDS011;31949;51.404;-0.038;2022-12-29T11:22:13;7.53;;;1.30;;
46230;SDS011;31949;51.404;-0.038;2022-12-29T11:24:49;6.20;;;1.20;;
46230;SDS011;31949;51.404;-0.038;2022-12-29T11:27:21;8.02;;;2.30;;
46230;SDS011;31949;51.404;-0.038;2022-12-29T11:29:51;8.20;;;1.55;;
46230;SDS011;31949;51.404;-0.038;2022-12-29T11:32:20;5.03;;;1.20;;
46230;SDS011;31949;51.404;-0.038;2022-12-29T11:34:58;7.75;;;1.92;;
46230;SDS011;31949;51.404;-0.038;2022-12-29T11:37:29;4.78;;;1.00;;
46230;SDS011;31949;51.404;-0.038;2022-12-29T11:40:19;3.53;;;1.08;;
46230;SDS011;31949;51.404;-0.038;2022-12-29T11:42:48;5.22;;;1.02;;
46230;SDS011;31949;51.404;-0.038;2022-12-29T11:45:20;4.82;;;1.33;;
46230;SDS011;31949;51.404;-0.038;2022-12-29T11:47:53;3.10;;;1.00;;
46230;SDS011;31949;51.404;-0.038;2022-12-29T11:50:33;2.58;;;1.02;;
46230;SDS011;31949;51.404;-0.038;2022-12-29T11:53:05;6.25;;;1.15;;
46230;SDS011;31949;51.404;-0.038;2022-12-29T11:55:40;4.10;;;1.10;;
46230;SDS011;31949;51.404;-0.038;2022-12-29T11:58:29;4.03;;;1.23;;
46230;SDS011;31949;51.404;-0.038;2022-12-29T12:01:00;6.03;;;1.77;;
46230;SDS011;31949;51.404;-0.038;2022-12-29T12:03:34;7.13;;;1.73;;
46230;SDS011;31949;51.404;-0.038;2022-12-29T12:06:07;6.45;;;1.30;;
46230;SDS011;31949;51.404;-0.038;2022-12-29T12:08:45;10.50;;;1.92;;
46230;SDS011;31949;51.404;-0.038;2022-12-29T12:14:13;6.30;;;2.03;;
46230;SDS011;31949;51.404;-0.038;2022-12-29T12:17:17;10.25;;;2.20;;
46230;SDS011;31949;51.404;-0.038;2022-12-29T12:19:53;7.95;;;2.15;;
46230;SDS011;31949;51.404;-0.038;2022-12-29T12:22:40;9.40;;;2.42;;
46230;SDS011;31949;51.404;-0.038;2022-12-29T12:25:37;8.02;;;2.65;;
46230;SDS011;31949;51.404;-0.038;2022-12-29T12:31:18;9.60;;;2.58;;
46230;SDS011;31949;51.404;-0.038;2022-12-29T12:33:57;11.65;;;2.80;;
46230;SDS011;31949;51.404;-0.038;2022-12-29T12:42:13;12.02;;;2.50;;
46230;SDS011;31949;51.404;-0.038;2022-12-29T12:44:52;12.63;;;2.58;;
46230;SDS011;31949;51.404;-0.038;2022-12-29T12:51:04;8.60;;;1.92;;
46230;SDS011;31949;51.404;-0.038;2022-12-29T12:53:51;12.48;;;2.10;;
46230;SDS011;31949;51.404;-0.038;2022-12-29T13:00:04;7.78;;;2.10;;
46230;SDS011;31949;51.404;-0.038;2022-12-29T13:09:32;9.60;;;3.10;;
46230;SDS011;31949;51.404;-0.038;2022-12-29T13:17:16;9.18;;;1.85;;
46230;SDS011;31949;51.404;-0.038;2022-12-29T13:22:56;9.00;;;2.15;;
46230;SDS011;31949;51.404;-0.038;2022-12-29T13:25:58;10.73;;;2.67;;
46230;SDS011;31949;51.404;-0.038;2022-12-29T13:28:46;14.27;;;2.83;;
46230;SDS011;31949;51.404;-0.038;2022-12-29T13:31:35;8.80;;;2.15;;
46230;SDS011;31949;51.404;-0.038;2022-12-29T13:37:12;10.00;;;2.13;;
46230;SDS011;31949;51.404;-0.038;2022-12-29T13:39:45;11.48;;;1.70;;
46230;SDS011;31949;51.404;-0.038;2022-12-29T13:42:19;14.73;;;3.20;;
46230;SDS011;31949;51.404;-0.038;2022-12-29T13:45:33;15.68;;;4.22;;
46230;SDS011;31949;51.404;-0.038;2022-12-29T13:47:55;8.55;;;2.17;;
46230;SDS011;31949;51.404;-0.038;2022-12-29T13:50:28;8.48;;;2.60;;
46230;SDS011;31949;51.404;-0.038;2022-12-29T14:03:55;12.13;;;2.53;;
46230;SDS011;31949;51.404;-0.038;2022-12-29T14:06:30;13.18;;;2.47;;
46230;SDS011;31949;51.404;-0.038;2022-12-29T14:09:27;10.13;;;2.65;;
46230;SDS011;31949;51.404;-0.038;2022-12-29T14:12:21;9.35;;;2.00;;
46230;SDS011;31949;51.404;-0.038;2022-12-29T14:17:43;9.60;;;2.05;;
46230;SDS011;31949;51.404;-0.038;2022-12-29T14:20:18;5.53;;;1.77;;
46230;SDS011;31949;51.404;-0.038;2022-12-29T14:28:24;7.63;;;2.20;;
46230;SDS011;31949;51.404;-0.038;2022-12-29T14:30:58;14.70;;;2.38;;
46230;SDS011;31949;51.404;-0.038;2022-12-29T14:33:29;9.70;;;2.15;;
46230;SDS011;31949;51.404;-0.038;2022-12-29T14:38:46;5.10;;;1.60;;
46230;SDS011;31949;51.404;-0.038;2022-12-29T14:41:15;8.43;;;2.13;;
46230;SDS011;31949;51.404;-0.038;2022-12-29T14:43:57;18.65;;;2.10;;
46230;SDS011;31949;51.404;-0.038;2022-12-29T14:49:39;11.25;;;1.95;;
46230;SDS011;31949;51.404;-0.038;2022-12-29T14:52:20;13.38;;;2.35;;
46230;SDS011;31949;51.404;-0.038;2022-12-29T14:55:28;8.80;;;2.65;;
46230;SDS011;31949;51.404;-0.038;2022-12-29T14:58:18;10.27;;;2.63;;
46230;SDS011;31949;51.404;-0.038;2022-12-29T15:00:53;8.90;;;1.90;;
46230;SDS011;31949;51.404;-0.038;2022-12-29T15:06:15;12.30;;;2.15;;
46230;SDS011;31949;51.404;-0.038;2022-12-29T15:11:42;8.38;;;2.22;;
46230;SDS011;31949;51.404;-0.038;2022-12-29T15:14:29;14.73;;;3.30;;
46230;SDS011;31949;51.404;-0.038;2022-12-29T15:19:51;12.32;;;1.90;;
46230;SDS011;31949;51.404;-0.038;2022-12-29T15:22:19;7.78;;;2.28;;
46230;SDS011;31949;51.404;-0.038;2022-12-29T15:24:48;11.60;;;2.00;;
46230;SDS011;31949;51.404;-0.038;2022-12-29T15:27:25;10.52;;;2.70;;
46230;SDS011;31949;51.404;-0.038;2022-12-29T15:30:00;10.02;;;2.08;;
46230;SDS011;31949;51.404;-0.038;2022-12-29T15:32:38;10.70;;;2.47;;
46230;SDS011;31949;51.404;-0.038;2022-12-29T15:37:56;13.07;;;2.50;;
46230;SDS011;31949;51.404;-0.038;2022-12-29T15:40:31;10.38;;;2.88;;
46230;SDS011;31949;51.404;-0.038;2022-12-29T15:45:40;8.00;;;2.05;;
46230;SDS011;31949;51.404;-0.038;2022-12-29T15:48:13;8.50;;;2.53;;
46230;SDS011;31949;51.404;-0.038;2022-12-29T15:50:45;8.52;;;3.08;;
46230;SDS011;31949;51.404;-0.038;2022-12-29T15:56:02;7.03;;;2.25;;
46230;SDS011;31949;51.404;-0.038;2022-12-29T15:58:43;12.95;;;3.13;;
46230;SDS011;31949;51.404;-0.038;2022-12-29T16:03:47;7.22;;;2.03;;
46230;SDS011;31949;51.404;-0.038;2022-12-29T16:08:56;6.57;;;2.45;;
46230;SDS011;31949;51.404;-0.038;2022-12-29T16:11:33;10.10;;;2.15;;
46230;SDS011;31949;51.404;-0.038;2022-12-29T16:14:15;13.75;;;4.50;;
46230;SDS011;31949;51.404;-0.038;2022-12-29T16:17:17;17.27;;;3.38;;
46230;SDS011;31949;51.404;-0.038;2022-12-29T16:19:52;12.95;;;3.95;;
46230;SDS011;31949;51.404;-0.038;2022-12-29T16:22:26;8.00;;;2.78;;
46230;SDS011;31949;51.404;-0.038;2022-12-29T16:25:36;10.05;;;2.45;;
46230;SDS011;31949;51.404;-0.038;2022-12-29T16:27:58;11.80;;;3.45;;
46230;SDS011;31949;51.404;-0.038;2022-12-29T16:33:04;8.80;;;1.65;;
46230;SDS011;31949;51.404;-0.038;2022-12-29T16:38:21;13.98;;;2.22;;
46230;SDS011;31949;51.404;-0.038;2022-12-29T16:40:50;13.45;;;2.17;;
46230;SDS011;31949;51.404;-0.038;2022-12-29T16:43:26;11.20;;;2.88;;
46230;SDS011;31949;51.404;-0.038;2022-12-29T16:48:25;9.32;;;2.05;;
46230;SDS011;31949;51.404;-0.038;2022-12-29T16:51:16;11.35;;;3.22;;
46230;SDS011;31949;51.404;-0.038;2022-12-29T16:53:51;13.48;;;3.13;;
46230;SDS011;31949;51.404;-0.038;2022-12-29T16:56:21;10.88;;;2.88;;
46230;SDS011;31949;51.404;-0.038;2022-12-29T16:59:06;9.23;;;2.17;;
46230;SDS011;31949;51.404;-0.038;2022-12-29T17:01:43;8.15;;;2.78;;
46230;SDS011;31949;51.404;-0.038;2022-12-29T17:04:12;8.82;;;2.15;;
46230;SDS011;31949;51.404;-0.038;2022-12-29T17:06:40;7.93;;;1.88;;
46230;SDS011;31949;51.404;-0.038;2022-12-29T17:09:26;11.55;;;2.65;;
46230;SDS011;31949;51.404;-0.038;2022-12-29T17:11:55;13.65;;;3.13;;
46230;SDS011;31949;51.404;-0.038;2022-12-29T17:17:03;14.82;;;3.45;;
46230;SDS011;31949;51.404;-0.038;2022-12-29T17:22:20;7.32;;;2.40;;
46230;SDS011;31949;51.404;-0.038;2022-12-29T17:24:51;9.02;;;2.58;;
46230;SDS011;31949;51.404;-0.038;2022-12-29T17:27:30;18.08;;;3.40;;
46230;SDS011;31949;51.404;-0.038;2022-12-29T17:30:03;10.27;;;2.72;;
46230;SDS011;31949;51.404;-0.038;2022-12-29T17:32:35;15.38;;;4.20;;
46230;SDS011;31949;51.404;-0.038;2022-12-29T17:35:03;9.43;;;3.13;;
46230;SDS011;31949;51.404;-0.038;2022-12-29T17:37:32;10.65;;;3.30;;
46230;SDS011;31949;51.404;-0.038;2022-12-29T17:40:02;8.52;;;2.00;;
46230;SDS011;31949;51.404;-0.038;2022-12-29T17:42:33;9.90;;;1.90;;
46230;SDS011;31949;51.404;-0.038;2022-12-29T17:45:04;8.73;;;2.25;;